Time;durP1;ratioP1;P1;durP2;ratioP2;P2;SDS_P1;SDS_P2;PMS_P1;PMS_P2;Temp;Humidity;BMP_temperature;BMP_pressure;BME280_temperature;BME280_humidity;BME280_pressure;Samples;Min_cycle;Max_cycle;Signal;HPM_P1;HPM_P2
2022/06/01 00:00:29;;;;;;;3.23;2.60;;;;;;;;;;5082371;28;20491;-84
2022/06/01 00:02:55;;;;;;;2.93;2.37;;;;;;;;;;5083406;28;20415;-84
2022/06/01 00:05:21;;;;;;;3.03;1.80;;;;;;;;;;5065189;28;20478;-84
2022/06/01 00:07:47;;;;;;;2.90;1.87;;;;;;;;;;5064067;28;20482;-83
2022/06/01 00:10:14;;;;;;;2.37;1.50;;;;;;;;;;5081756;28;20488;-83
2022/06/01 00:12:40;;;;;;;3.07;1.90;;;;;;;;;;5082846;28;20448;-83
2022/06/01 00:15:06;;;;;;;3.37;1.67;;;;;;;;;;5065194;28;20996;-83
2022/06/01 00:17:33;;;;;;;1.80;1.50;;;;;;;;;;5083505;28;20416;-83
2022/06/01 00:19:59;;;;;;;2.40;1.60;;;;;;;;;;5082077;28;20455;-83
2022/06/01 00:22:25;;;;;;;2.93;1.40;;;;;;;;;;5082065;28;20404;-83
2022/06/01 00:24:51;;;;;;;1.60;1.20;;;;;;;;;;5081795;28;20429;-83
2022/06/01 00:27:18;;;;;;;4.20;2.37;;;;;;;;;;5081116;28;20432;-83
2022/06/01 00:29:44;;;;;;;1.97;1.30;;;;;;;;;;5063159;28;20409;-84
2022/06/01 00:32:12;;;;;;;2.23;1.37;;;;;;;;;;5081442;28;20518;-83
2022/06/01 00:34:38;;;;;;;1.70;1.23;;;;;;;;;;5062897;28;20455;-83
2022/06/01 00:37:05;;;;;;;2.40;1.47;;;;;;;;;;5081958;28;20484;-83
2022/06/01 00:39:31;;;;;;;3.40;1.70;;;;;;;;;;5085910;28;20409;-85
2022/06/01 00:42:13;;;;;;;4.80;1.63;;;;;;;;;;5084678;28;20412;-83
2022/06/01 00:44:39;;;;;;;2.30;1.60;;;;;;;;;;5083118;28;20417;-82
2022/06/01 00:47:05;;;;;;;1.90;1.60;;;;;;;;;;5084405;28;20440;-83
2022/06/01 00:49:32;;;;;;;2.20;1.47;;;;;;;;;;5064603;28;20400;-83
2022/06/01 00:51:58;;;;;;;1.80;1.20;;;;;;;;;;5081612;28;20749;-82
2022/06/01 00:54:26;;;;;;;2.07;1.73;;;;;;;;;;5081272;28;20427;-83
2022/06/01 00:56:55;;;;;;;1.80;1.40;;;;;;;;;;5080959;28;20397;-83
2022/06/01 00:59:23;;;;;;;2.33;1.80;;;;;;;;;;5081785;28;20393;-83
2022/06/01 01:01:52;;;;;;;2.10;1.73;;;;;;;;;;5081513;28;20915;-82
2022/06/01 01:04:18;;;;;;;3.63;1.77;;;;;;;;;;5081845;28;20455;-83
2022/06/01 01:06:44;;;;;;;1.70;1.50;;;;;;;;;;5080950;28;20430;-83
2022/06/01 01:09:11;;;;;;;3.43;1.83;;;;;;;;;;5063033;28;20794;-83
2022/06/01 01:11:45;;;;;;;3.10;1.63;;;;;;;;;;5062886;28;20416;-83
2022/06/01 01:14:12;;;;;;;1.80;1.40;;;;;;;;;;5102402;22;20456;-84
2022/06/01 01:16:39;;;;;;;4.37;1.80;;;;;;;;;;5082369;28;20483;-83
2022/06/01 01:19:09;;;;;;;2.07;1.70;;;;;;;;;;5084071;28;20491;-83
2022/06/01 01:21:38;;;;;;;3.10;1.80;;;;;;;;;;5083731;28;20797;-83
2022/06/01 01:24:04;;;;;;;2.30;1.73;;;;;;;;;;5082630;28;20431;-83
2022/06/01 01:26:31;;;;;;;2.23;1.40;;;;;;;;;;5066070;28;20409;-83
2022/06/01 01:28:57;;;;;;;2.47;1.87;;;;;;;;;;5065537;28;20416;-83
2022/06/01 01:31:24;;;;;;;2.33;1.47;;;;;;;;;;5078991;28;20433;-83
2022/06/01 01:33:51;;;;;;;2.33;1.73;;;;;;;;;;5057891;28;20447;-83
2022/06/01 01:36:18;;;;;;;3.07;1.73;;;;;;;;;;5084216;28;20464;-83
2022/06/01 01:38:49;;;;;;;2.27;1.67;;;;;;;;;;5080311;28;20411;-82
2022/06/01 01:41:30;;;;;;;2.33;1.53;;;;;;;;;;5084019;28;20440;-83
2022/06/01 01:43:56;;;;;;;9.87;2.20;;;;;;;;;;5083869;28;20401;-84
2022/06/01 01:46:22;;;;;;;1.80;1.40;;;;;;;;;;5084256;28;20983;-83
2022/06/01 01:48:48;;;;;;;3.90;1.97;;;;;;;;;;5083101;28;20396;-83
2022/06/01 01:51:19;;;;;;;2.40;1.80;;;;;;;;;;5082858;28;20888;-83
2022/06/01 01:53:45;;;;;;;4.50;1.40;;;;;;;;;;5083817;28;20393;-83
2022/06/01 01:56:28;;;;;;;2.20;1.90;;;;;;;;;;5084725;28;20455;-83
2022/06/01 01:59:09;;;;;;;6.00;2.00;;;;;;;;;;5082884;28;20400;-83
2022/06/01 02:01:41;;;;;;;3.30;1.80;;;;;;;;;;5081082;28;20545;-83
2022/06/01 02:07:03;;;;;;;3.20;2.03;;;;;;;;;;5092255;28;20399;-84
2022/06/01 02:12:41;;;;;;;2.00;1.80;;;;;;;;;;5087784;28;20405;-84
2022/06/01 02:15:00;;;;;;;2.23;1.80;;;;;;;;;;5087002;28;20444;-83
2022/06/01 02:17:29;;;;;;;2.80;1.80;;;;;;;;;;5087219;28;20408;-84
2022/06/01 02:19:59;;;;;;;3.87;2.23;;;;;;;;;;5086722;28;20440;-83
2022/06/01 02:22:25;;;;;;;2.97;1.80;;;;;;;;;;5086889;28;20408;-83
2022/06/01 02:24:52;;;;;;;2.93;2.20;;;;;;;;;;5086674;28;20931;-84
2022/06/01 02:27:18;;;;;;;2.50;2.03;;;;;;;;;;5086752;28;20483;-83
2022/06/01 02:29:44;;;;;;;5.60;1.80;;;;;;;;;;5087034;28;20423;-83
2022/06/01 02:32:12;;;;;;;2.80;2.00;;;;;;;;;;5083224;28;20859;-83
2022/06/01 02:34:39;;;;;;;4.63;2.10;;;;;;;;;;5073994;28;20821;-83
2022/06/01 02:37:06;;;;;;;2.80;2.40;;;;;;;;;;5073658;28;20401;-83
2022/06/01 02:39:34;;;;;;;2.80;2.30;;;;;;;;;;5073748;28;20450;-83
2022/06/01 02:42:26;;;;;;;3.03;2.10;;;;;;;;;;5073530;28;20423;-83
2022/06/01 02:44:58;;;;;;;3.63;2.40;;;;;;;;;;5055528;28;20519;-83
2022/06/01 02:47:25;;;;;;;2.90;2.33;;;;;;;;;;5073396;28;20956;-83
2022/06/01 02:49:50;;;;;;;4.40;2.37;;;;;;;;;;5073594;28;20405;-82
2022/06/01 02:52:17;;;;;;;2.50;2.30;;;;;;;;;;5055226;28;20420;-83
2022/06/01 02:54:43;;;;;;;3.70;2.63;;;;;;;;;;5073866;28;20463;-83
2022/06/01 02:57:09;;;;;;;2.93;2.30;;;;;;;;;;5073381;28;20485;-83
2022/06/01 02:59:36;;;;;;;3.73;2.27;;;;;;;;;;5073157;28;20906;-83
2022/06/01 03:02:02;;;;;;;4.30;3.00;;;;;;;;;;5074595;28;20468;-82
2022/06/01 03:04:28;;;;;;;4.23;2.53;;;;;;;;;;5074148;28;20840;-82
2022/06/01 03:06:55;;;;;;;3.73;2.73;;;;;;;;;;5080421;28;20447;-82
2022/06/01 03:09:21;;;;;;;6.07;2.60;;;;;;;;;;5086794;28;20408;-83
2022/06/01 03:11:47;;;;;;;3.03;2.17;;;;;;;;;;5086072;28;20458;-83
2022/06/01 03:14:13;;;;;;;4.77;2.87;;;;;;;;;;5084031;28;20431;-83
2022/06/01 03:16:39;;;;;;;2.50;2.30;;;;;;;;;;5074544;28;20393;-83
2022/06/01 03:19:05;;;;;;;4.13;3.00;;;;;;;;;;5056474;28;20416;-83
2022/06/01 03:21:31;;;;;;;5.17;3.83;;;;;;;;;;5077334;28;20819;-83
2022/06/01 03:23:57;;;;;;;5.00;3.47;;;;;;;;;;5077336;28;20908;-83
2022/06/01 03:26:23;;;;;;;3.40;2.70;;;;;;;;;;5076976;28;20420;-82
2022/06/01 03:28:49;;;;;;;4.90;3.20;;;;;;;;;;5077419;28;20416;-83
2022/06/01 03:31:15;;;;;;;3.90;2.90;;;;;;;;;;5077441;28;20419;-83
2022/06/01 03:33:42;;;;;;;7.57;5.27;;;;;;;;;;5077975;28;20404;-82
2022/06/01 03:36:10;;;;;;;5.33;3.17;;;;;;;;;;5077153;28;20428;-82
2022/06/01 03:38:37;;;;;;;3.90;2.63;;;;;;;;;;5077267;28;20401;-82
2022/06/01 03:41:03;;;;;;;3.67;2.17;;;;;;;;;;5076986;28;20444;-82
2022/06/01 03:43:30;;;;;;;2.57;2.10;;;;;;;;;;5077192;28;20405;-82
2022/06/01 03:45:57;;;;;;;5.00;2.63;;;;;;;;;;5077413;28;20716;-83
2022/06/01 03:48:24;;;;;;;4.10;2.50;;;;;;;;;;5077349;28;20447;-82
2022/06/01 03:50:50;;;;;;;5.20;3.27;;;;;;;;;;5077446;28;20423;-82
2022/06/01 03:53:16;;;;;;;6.30;3.70;;;;;;;;;;5059080;28;20417;-83
2022/06/01 03:55:42;;;;;;;7.77;4.03;;;;;;;;;;5072555;28;20519;-83
2022/06/01 03:58:19;;;;;;;6.30;4.33;;;;;;;;;;5076991;28;20440;-82
2022/06/01 04:00:46;;;;;;;6.97;3.87;;;;;;;;;;5078108;28;21009;-82
2022/06/01 04:03:12;;;;;;;8.97;4.53;;;;;;;;;;5062856;28;20420;-83
2022/06/01 04:05:38;;;;;;;4.63;3.80;;;;;;;;;;5082607;28;20562;-83
2022/06/01 04:08:05;;;;;;;5.37;3.10;;;;;;;;;;5083167;28;20408;-83
2022/06/01 04:10:32;;;;;;;4.43;3.07;;;;;;;;;;5083233;28;20411;-83
2022/06/01 04:12:58;;;;;;;4.23;2.70;;;;;;;;;;5081782;28;20431;-84
2022/06/01 04:15:24;;;;;;;3.43;2.63;;;;;;;;;;5079250;28;20448;-82
2022/06/01 04:17:50;;;;;;;3.87;2.60;;;;;;;;;;5091610;28;20416;-83
2022/06/01 04:20:16;;;;;;;6.03;3.40;;;;;;;;;;5089387;28;20448;-83
2022/06/01 04:22:43;;;;;;;5.17;3.60;;;;;;;;;;5090120;28;20405;-83
2022/06/01 04:25:10;;;;;;;6.20;3.20;;;;;;;;;;5079830;28;20474;-83
2022/06/01 04:27:38;;;;;;;4.43;3.30;;;;;;;;;;5081842;28;20476;-83
2022/06/01 04:30:04;;;;;;;3.63;3.10;;;;;;;;;;5081210;28;20803;-83
2022/06/01 04:32:34;;;;;;;11.43;3.00;;;;;;;;;;5077587;28;20436;-83
2022/06/01 04:35:00;;;;;;;3.10;2.47;;;;;;;;;;5077228;28;20421;-82
2022/06/01 04:37:26;;;;;;;3.70;2.93;;;;;;;;;;5075767;28;20451;-82
2022/06/01 04:39:52;;;;;;;9.33;3.67;;;;;;;;;;5078627;28;20935;-83
2022/06/01 04:42:18;;;;;;;5.30;2.87;;;;;;;;;;5076352;28;20469;-83
2022/06/01 04:44:46;;;;;;;4.07;3.10;;;;;;;;;;5077212;28;20431;-83
2022/06/01 04:47:12;;;;;;;3.30;2.33;;;;;;;;;;5077256;28;20400;-82
2022/06/01 04:49:38;;;;;;;2.53;2.00;;;;;;;;;;5077814;28;20915;-83
2022/06/01 04:52:04;;;;;;;6.70;2.50;;;;;;;;;;5076861;28;20404;-83
2022/06/01 04:54:30;;;;;;;6.53;2.63;;;;;;;;;;5077332;28;20511;-82
2022/06/01 04:56:56;;;;;;;3.40;2.50;;;;;;;;;;5077859;28;20439;-83
2022/06/01 04:59:22;;;;;;;7.00;2.20;;;;;;;;;;5077669;28;20400;-82
2022/06/01 05:01:48;;;;;;;4.00;2.33;;;;;;;;;;5077141;28;21004;-83
2022/06/01 05:04:14;;;;;;;3.73;2.57;;;;;;;;;;5076332;28;20401;-83
2022/06/01 05:06:41;;;;;;;3.80;3.00;;;;;;;;;;5076953;28;20456;-83
2022/06/01 05:09:07;;;;;;;3.07;2.00;;;;;;;;;;5080311;28;20399;-83
2022/06/01 05:11:34;;;;;;;3.27;2.10;;;;;;;;;;5077714;28;20400;-83
2022/06/01 05:14:00;;;;;;;3.27;2.03;;;;;;;;;;5077728;28;20434;-82
2022/06/01 05:16:26;;;;;;;2.70;2.00;;;;;;;;;;5078358;28;20861;-83
2022/06/01 05:18:52;;;;;;;2.93;2.40;;;;;;;;;;5076521;28;20416;-81
2022/06/01 05:21:19;;;;;;;3.00;2.40;;;;;;;;;;5076429;28;20518;-81
2022/06/01 05:23:45;;;;;;;3.30;1.90;;;;;;;;;;5076536;28;20417;-80
2022/06/01 05:26:11;;;;;;;2.57;2.20;;;;;;;;;;5077430;28;20436;-81
2022/06/01 05:28:37;;;;;;;3.27;2.67;;;;;;;;;;5059764;28;20409;-82
2022/06/01 05:31:04;;;;;;;3.17;1.80;;;;;;;;;;5076665;28;20417;-81
2022/06/01 05:33:31;;;;;;;2.97;2.03;;;;;;;;;;5075637;28;20480;-81
2022/06/01 05:35:57;;;;;;;2.33;2.03;;;;;;;;;;5077244;28;20440;-81
2022/06/01 05:38:23;;;;;;;2.30;1.90;;;;;;;;;;5077511;28;20424;-82
2022/06/01 05:40:50;;;;;;;2.87;1.77;;;;;;;;;;5060326;28;20520;-82
2022/06/01 05:43:17;;;;;;;3.67;2.23;;;;;;;;;;5069888;28;20434;-83
2022/06/01 05:45:43;;;;;;;3.23;2.30;;;;;;;;;;5080304;28;20433;-82
2022/06/01 05:48:10;;;;;;;5.57;2.73;;;;;;;;;;5080915;28;20429;-83
2022/06/01 05:50:36;;;;;;;2.87;2.23;;;;;;;;;;5082274;28;20411;-82
2022/06/01 05:53:02;;;;;;;4.17;2.37;;;;;;;;;;5080591;28;20404;-82
2022/06/01 05:55:29;;;;;;;3.37;2.20;;;;;;;;;;5080749;28;20982;-82
2022/06/01 05:57:55;;;;;;;6.70;2.17;;;;;;;;;;5079792;28;20408;-82
2022/06/01 06:00:21;;;;;;;2.43;1.90;;;;;;;;;;5081161;28;20455;-82
2022/06/01 06:02:48;;;;;;;3.30;2.00;;;;;;;;;;5082038;28;20433;-83
2022/06/01 06:07:59;;;;;;;9.13;2.30;;;;;;;;;;5093103;28;20404;-82
2022/06/01 06:10:26;;;;;;;2.73;1.97;;;;;;;;;;5095546;28;20407;-84
2022/06/01 06:12:53;;;;;;;4.10;1.70;;;;;;;;;;5096900;28;20435;-84
2022/06/01 06:15:19;;;;;;;3.00;2.33;;;;;;;;;;5096207;28;20465;-81
2022/06/01 06:17:45;;;;;;;2.70;1.53;;;;;;;;;;5095601;28;20416;-81
2022/06/01 06:20:12;;;;;;;5.13;2.27;;;;;;;;;;5096453;28;20447;-85
2022/06/01 06:22:38;;;;;;;4.00;1.87;;;;;;;;;;5095470;28;20484;-81
2022/06/01 06:25:04;;;;;;;2.13;1.53;;;;;;;;;;5092148;28;20429;-82
2022/06/01 06:27:31;;;;;;;2.33;2.00;;;;;;;;;;5082695;28;20773;-83
2022/06/01 06:29:57;;;;;;;3.77;1.90;;;;;;;;;;5069343;28;20447;-82
2022/06/01 06:32:25;;;;;;;3.57;2.00;;;;;;;;;;5084221;28;20444;-81
2022/06/01 06:34:51;;;;;;;5.07;2.03;;;;;;;;;;5081123;28;20447;-82
2022/06/01 06:37:17;;;;;;;6.90;2.40;;;;;;;;;;5081334;28;20419;-83
2022/06/01 06:39:43;;;;;;;3.47;2.13;;;;;;;;;;5080392;28;20420;-83
2022/06/01 06:42:09;;;;;;;2.87;1.97;;;;;;;;;;5062192;28;20425;-82
2022/06/01 06:44:36;;;;;;;3.60;1.80;;;;;;;;;;5080339;28;20420;-82
2022/06/01 06:47:03;;;;;;;3.63;1.73;;;;;;;;;;5081473;28;20842;-83
2022/06/01 06:49:29;;;;;;;6.00;2.10;;;;;;;;;;5080974;28;20515;-83
2022/06/01 06:51:55;;;;;;;3.90;2.07;;;;;;;;;;5080618;28;20780;-84
2022/06/01 06:54:21;;;;;;;3.27;2.10;;;;;;;;;;5080358;28;20412;-85
2022/06/01 06:56:47;;;;;;;3.10;1.90;;;;;;;;;;5082827;28;20424;-84
2022/06/01 06:59:15;;;;;;;4.50;2.50;;;;;;;;;;5068611;28;20416;-84
2022/06/01 07:01:42;;;;;;;5.43;2.53;;;;;;;;;;5072161;28;20475;-84
2022/06/01 07:04:08;;;;;;;5.43;2.10;;;;;;;;;;5088441;28;20404;-82
2022/06/01 07:06:34;;;;;;;2.63;1.80;;;;;;;;;;5086245;28;20484;-84
2022/06/01 07:09:00;;;;;;;4.67;2.27;;;;;;;;;;5086313;28;20442;-84
2022/06/01 07:11:28;;;;;;;3.73;2.13;;;;;;;;;;5064004;28;20416;-83
2022/06/01 07:13:54;;;;;;;2.97;2.10;;;;;;;;;;5085014;28;20424;-83
2022/06/01 07:16:22;;;;;;;5.60;2.07;;;;;;;;;;5084861;28;20463;-83
2022/06/01 07:18:49;;;;;;;3.70;2.23;;;;;;;;;;5084890;28;20486;-83
2022/06/01 07:21:16;;;;;;;3.97;2.10;;;;;;;;;;5068861;28;20448;-84
2022/06/01 07:23:42;;;;;;;5.80;2.30;;;;;;;;;;5070290;28;20424;-84
2022/06/01 07:26:10;;;;;;;6.10;3.30;;;;;;;;;;5065737;28;20422;-83
2022/06/01 07:28:36;;;;;;;3.57;1.80;;;;;;;;;;5079071;28;20550;-83
2022/06/01 07:31:04;;;;;;;2.87;2.00;;;;;;;;;;5085591;28;20412;-84
2022/06/01 07:33:30;;;;;;;4.97;1.93;;;;;;;;;;5086391;28;20420;-84
2022/06/01 07:36:00;;;;;;;3.73;1.97;;;;;;;;;;5085837;28;20433;-83
2022/06/01 07:44:08;;;;;;;5.87;2.13;;;;;;;;;;5077837;28;20396;-83
2022/06/01 07:46:35;;;;;;;5.10;2.00;;;;;;;;;;5067272;28;20473;-82
2022/06/01 07:49:01;;;;;;;3.50;1.87;;;;;;;;;;5080776;28;20429;-83
2022/06/01 07:51:27;;;;;;;3.23;2.20;;;;;;;;;;5082004;28;20404;-83
2022/06/01 07:53:53;;;;;;;7.43;2.13;;;;;;;;;;5079465;28;20413;-83
2022/06/01 07:56:19;;;;;;;6.37;2.47;;;;;;;;;;5082164;28;20520;-84
2022/06/01 07:58:45;;;;;;;4.80;2.57;;;;;;;;;;5083288;28;20407;-81
2022/06/01 08:01:11;;;;;;;2.93;2.03;;;;;;;;;;5065306;28;20452;-81
2022/06/01 08:03:37;;;;;;;7.85;1.95;;;;;;;;;;5081418;28;20422;-81
2022/06/01 08:06:03;;;;;;;3.50;1.97;;;;;;;;;;5062658;28;20190;-81
2022/06/01 08:08:29;;;;;;;7.50;2.40;;;;;;;;;;5084983;28;20413;-82
2022/06/01 08:10:59;;;;;;;3.83;2.30;;;;;;;;;;5084476;28;20416;-81
2022/06/01 08:13:25;;;;;;;5.47;2.20;;;;;;;;;;5082954;28;20774;-81
2022/06/01 08:15:54;;;;;;;4.20;1.70;;;;;;;;;;5065898;28;20451;-82
2022/06/01 08:18:22;;;;;;;2.57;1.70;;;;;;;;;;5070591;28;20424;-82
2022/06/01 08:20:48;;;;;;;8.80;3.43;;;;;;;;;;5082855;28;20476;-81
2022/06/01 08:23:15;;;;;;;3.37;1.43;;;;;;;;;;5080231;28;20477;-80
2022/06/01 08:25:41;;;;;;;5.50;2.73;;;;;;;;;;5078588;28;20432;-80
2022/06/01 08:28:08;;;;;;;4.00;1.97;;;;;;;;;;5080115;28;20452;-81
2022/06/01 08:30:35;;;;;;;4.50;1.60;;;;;;;;;;5080207;28;20884;-81
2022/06/01 08:33:01;;;;;;;3.30;1.70;;;;;;;;;;5078514;28;20412;-82
2022/06/01 08:35:29;;;;;;;2.90;1.90;;;;;;;;;;5078821;28;20501;-81
2022/06/01 08:37:56;;;;;;;5.03;2.00;;;;;;;;;;5078422;28;20904;-81
2022/06/01 08:40:24;;;;;;;2.30;1.70;;;;;;;;;;5088748;28;20971;-81
2022/06/01 08:42:55;;;;;;;3.70;1.77;;;;;;;;;;5086328;28;20421;-81
2022/06/01 08:45:22;;;;;;;6.63;2.03;;;;;;;;;;5082159;28;20999;-81
2022/06/01 08:47:49;;;;;;;5.13;2.10;;;;;;;;;;5081099;28;20419;-81
2022/06/01 08:50:18;;;;;;;2.60;1.90;;;;;;;;;;5079699;28;20404;-81
2022/06/01 08:52:45;;;;;;;2.80;1.70;;;;;;;;;;5078592;28;20487;-81
2022/06/01 08:55:11;;;;;;;3.30;1.57;;;;;;;;;;5080267;28;20456;-82
2022/06/01 08:57:46;;;;;;;6.07;1.73;;;;;;;;;;5085319;28;20420;-82
2022/06/01 09:00:14;;;;;;;3.77;1.33;;;;;;;;;;5083814;28;20448;-83
2022/06/01 09:02:46;;;;;;;4.10;1.73;;;;;;;;;;5082081;28;20417;-83
2022/06/01 09:05:15;;;;;;;5.57;1.80;;;;;;;;;;5081093;28;20432;-83
2022/06/01 09:07:45;;;;;;;3.00;2.10;;;;;;;;;;5082051;28;20415;-83
2022/06/01 09:10:20;;;;;;;5.47;1.60;;;;;;;;;;5066494;28;20481;-83
2022/06/01 09:12:48;;;;;;;2.90;1.67;;;;;;;;;;5081824;28;20416;-84
2022/06/01 09:15:26;;;;;;;2.40;1.60;;;;;;;;;;5081931;28;20855;-83
2022/06/01 09:17:53;;;;;;;2.23;1.83;;;;;;;;;;5081987;28;20932;-83
2022/06/01 09:23:09;;;;;;;4.77;2.00;;;;;;;;;;5080024;28;20415;-82
2022/06/01 09:25:35;;;;;;;5.60;2.10;;;;;;;;;;5082616;28;20612;-82
2022/06/01 09:28:20;;;;;;;2.87;1.83;;;;;;;;;;5082635;28;20412;-82
2022/06/01 09:30:52;;;;;;;4.17;1.80;;;;;;;;;;5064121;28;20430;-82
2022/06/01 09:33:24;;;;;;;4.60;1.93;;;;;;;;;;5083654;28;20466;-83
2022/06/01 09:36:01;;;;;;;4.00;2.00;;;;;;;;;;5074479;28;20495;-83
2022/06/01 09:38:48;;;;;;;2.67;1.60;;;;;;;;;;5073226;28;20820;-81
2022/06/01 09:41:23;;;;;;;3.83;1.83;;;;;;;;;;5081406;28;20468;-83
2022/06/01 09:43:53;;;;;;;6.83;1.80;;;;;;;;;;5081573;28;20446;-84
2022/06/01 09:46:33;;;;;;;5.53;3.43;;;;;;;;;;5083073;28;20443;-83
2022/06/01 09:48:59;;;;;;;3.43;2.17;;;;;;;;;;5082496;28;20404;-83
2022/06/01 09:51:25;;;;;;;4.00;1.70;;;;;;;;;;5083107;28;20401;-83
2022/06/01 09:53:53;;;;;;;3.00;1.93;;;;;;;;;;5067483;28;20413;-82
2022/06/01 09:56:29;;;;;;;3.37;1.50;;;;;;;;;;5068301;28;20959;-83
2022/06/01 10:07:34;;;;;;;9.07;2.70;;;;;;;;;;5066796;28;20559;-83
2022/06/01 10:10:01;;;;;;;2.90;1.53;;;;;;;;;;5065173;28;20500;-84
2022/06/01 10:12:35;;;;;;;2.90;1.70;;;;;;;;;;5081375;28;20401;-82
2022/06/01 10:15:02;;;;;;;2.80;1.60;;;;;;;;;;5081948;28;20448;-82
2022/06/01 10:17:29;;;;;;;2.60;2.03;;;;;;;;;;5080612;28;20485;-82
2022/06/01 10:20:04;;;;;;;2.67;1.67;;;;;;;;;;5062445;28;20412;-83
2022/06/01 10:22:36;;;;;;;5.13;2.43;;;;;;;;;;5080629;28;20407;-83
2022/06/01 10:25:12;;;;;;;4.27;2.20;;;;;;;;;;5081519;28;20556;-83
2022/06/01 10:27:41;;;;;;;5.47;2.10;;;;;;;;;;5081506;28;20381;-84
2022/06/01 10:30:15;;;;;;;5.50;2.07;;;;;;;;;;5087354;28;20413;-82
2022/06/01 10:32:51;;;;;;;3.80;2.40;;;;;;;;;;5085069;28;20389;-83
2022/06/01 10:35:21;;;;;;;2.33;1.60;;;;;;;;;;5085142;28;20420;-83
2022/06/01 10:38:10;;;;;;;2.87;2.00;;;;;;;;;;5083826;28;20392;-82
2022/06/01 10:40:39;;;;;;;3.03;2.20;;;;;;;;;;5071826;28;20885;-82
2022/06/01 10:43:17;;;;;;;4.23;2.43;;;;;;;;;;5069867;28;20412;-83
2022/06/01 10:45:49;;;;;;;3.30;1.67;;;;;;;;;;5077909;28;20420;-81
2022/06/01 10:48:29;;;;;;;8.83;2.60;;;;;;;;;;5081304;28;20401;-82
2022/06/01 10:51:10;;;;;;;5.30;1.93;;;;;;;;;;5086383;28;20447;-84
2022/06/01 10:53:52;;;;;;;3.00;1.60;;;;;;;;;;5079093;28;20415;-83
2022/06/01 10:56:19;;;;;;;3.50;2.10;;;;;;;;;;5083331;28;21024;-82
2022/06/01 10:58:45;;;;;;;4.43;1.77;;;;;;;;;;5072279;28;20784;-82
2022/06/01 11:01:23;;;;;;;7.80;2.23;;;;;;;;;;5065969;28;20524;-86
2022/06/01 11:04:08;;;;;;;3.70;1.80;;;;;;;;;;5084944;28;20411;-82
2022/06/01 11:06:40;;;;;;;3.87;1.93;;;;;;;;;;5066951;28;20401;-83
2022/06/01 11:09:06;;;;;;;3.43;1.50;;;;;;;;;;5082791;28;20408;-82
2022/06/01 11:11:51;;;;;;;3.70;1.90;;;;;;;;;;5080275;28;20447;-82
2022/06/01 11:14:39;;;;;;;3.27;2.00;;;;;;;;;;5083414;28;20428;-82
2022/06/01 11:17:24;;;;;;;3.50;1.70;;;;;;;;;;5083552;28;20401;-83
2022/06/01 11:19:50;;;;;;;2.77;1.80;;;;;;;;;;5061988;28;20781;-82
2022/06/01 11:22:39;;;;;;;3.70;1.73;;;;;;;;;;5072519;28;20405;-82
2022/06/01 11:25:20;;;;;;;4.43;2.33;;;;;;;;;;5060292;28;20812;-85
2022/06/01 11:27:55;;;;;;;6.33;2.00;;;;;;;;;;5057093;28;20415;-83
2022/06/01 11:30:24;;;;;;;2.83;1.70;;;;;;;;;;5061725;28;20428;-83
2022/06/01 11:32:58;;;;;;;4.03;1.80;;;;;;;;;;5067019;28;20415;-83
2022/06/01 11:35:30;;;;;;;2.63;1.50;;;;;;;;;;5081616;28;20435;-83
2022/06/01 11:38:16;;;;;;;4.03;2.00;;;;;;;;;;5082370;28;20754;-83
2022/06/01 11:40:51;;;;;;;3.93;2.17;;;;;;;;;;5081512;28;20798;-83
2022/06/01 11:43:20;;;;;;;4.90;1.63;;;;;;;;;;5082549;28;20401;-84
2022/06/01 11:45:49;;;;;;;3.10;1.40;;;;;;;;;;5082454;28;20997;-84
2022/06/01 11:48:20;;;;;;;3.80;1.93;;;;;;;;;;5083200;28;20397;-82
2022/06/01 11:50:55;;;;;;;3.00;1.50;;;;;;;;;;5083896;28;20965;-83
2022/06/01 11:53:57;;;;;;;3.13;1.67;;;;;;;;;;5083428;28;20411;-84
2022/06/01 11:56:26;;;;;;;4.00;1.60;;;;;;;;;;4982566;28;21040;-83
2022/06/01 11:59:04;;;;;;;5.90;2.03;;;;;;;;;;5047419;28;20423;-83
2022/06/01 12:01:36;;;;;;;4.33;1.57;;;;;;;;;;5082580;28;20550;-83
2022/06/01 12:04:11;;;;;;;2.67;1.63;;;;;;;;;;5069042;28;20746;-83
2022/06/01 12:06:40;;;;;;;2.80;1.40;;;;;;;;;;5062270;28;20421;-83
2022/06/01 12:09:12;;;;;;;2.27;1.43;;;;;;;;;;5061409;28;20408;-82
2022/06/01 12:11:45;;;;;;;3.00;2.00;;;;;;;;;;5066383;28;20940;-83
2022/06/01 12:14:23;;;;;;;2.37;1.37;;;;;;;;;;5078603;28;20457;-82
2022/06/01 12:17:08;;;;;;;5.33;2.13;;;;;;;;;;5068994;28;20775;-83
2022/06/01 12:19:35;;;;;;;3.03;1.40;;;;;;;;;;5060512;28;20495;-83
2022/06/01 12:22:03;;;;;;;2.43;1.50;;;;;;;;;;5062056;28;20448;-82
2022/06/01 12:30:18;;;;;;;6.30;1.77;;;;;;;;;;5061776;28;20804;-84
2022/06/01 12:32:53;;;;;;;3.23;1.70;;;;;;;;;;5062292;28;20408;-83
2022/06/01 12:35:20;;;;;;;3.40;1.90;;;;;;;;;;5061808;28;20428;-83
2022/06/01 12:37:50;;;;;;;4.87;1.80;;;;;;;;;;5066893;28;20468;-84
2022/06/01 12:40:18;;;;;;;2.10;1.30;;;;;;;;;;5087312;28;20441;-83
2022/06/01 12:42:46;;;;;;;3.20;1.60;;;;;;;;;;5085099;28;20480;-84
2022/06/01 12:45:17;;;;;;;2.97;1.80;;;;;;;;;;5085257;28;20713;-81
2022/06/01 12:47:51;;;;;;;2.57;1.47;;;;;;;;;;5085757;28;20443;-82
2022/06/01 12:50:19;;;;;;;2.73;1.70;;;;;;;;;;5067880;28;20489;-81
2022/06/01 12:52:46;;;;;;;3.57;1.87;;;;;;;;;;5064816;28;20515;-81
2022/06/01 12:55:20;;;;;;;6.50;2.37;;;;;;;;;;5083295;28;20520;-82
2022/06/01 12:57:50;;;;;;;3.10;1.80;;;;;;;;;;5083408;28;20412;-83
2022/06/01 13:00:19;;;;;;;3.07;2.03;;;;;;;;;;5086937;28;20460;-82
2022/06/01 13:02:46;;;;;;;3.93;1.80;;;;;;;;;;5087671;28;20550;-82
2022/06/01 13:05:14;;;;;;;2.83;1.87;;;;;;;;;;5085900;28;20799;-82
2022/06/01 13:07:42;;;;;;;4.83;1.90;;;;;;;;;;5085488;28;20416;-82
2022/06/01 13:10:14;;;;;;;2.80;1.50;;;;;;;;;;5074653;23;20500;-86
2022/06/01 13:12:40;;;;;;;3.00;1.90;;;;;;;;;;5058962;28;20417;-85
2022/06/01 13:15:08;;;;;;;4.47;1.70;;;;;;;;;;5059734;28;20432;-85
2022/06/01 13:17:34;;;;;;;3.27;1.77;;;;;;;;;;5059705;28;20413;-85
2022/06/01 13:20:00;;;;;;;6.27;2.27;;;;;;;;;;5059316;28;20504;-86
2022/06/01 13:22:37;;;;;;;2.40;1.53;;;;;;;;;;5060135;28;20499;-87
2022/06/01 13:25:05;;;;;;;2.73;1.50;;;;;;;;;;5053097;28;20413;-86
2022/06/01 13:27:34;;;;;;;2.70;1.90;;;;;;;;;;5060019;28;20406;-85
2022/06/01 13:30:00;;;;;;;5.23;1.80;;;;;;;;;;5056640;28;20491;-85
2022/06/01 13:32:31;;;;;;;3.30;1.50;;;;;;;;;;5059315;28;20436;-87
2022/06/01 13:35:02;;;;;;;2.87;1.73;;;;;;;;;;5042524;28;20412;-86
2022/06/01 13:37:30;;;;;;;3.10;1.70;;;;;;;;;;5057785;28;20414;-83
2022/06/01 13:39:56;;;;;;;3.83;1.60;;;;;;;;;;5059142;28;20567;-85
2022/06/01 13:42:33;;;;;;;4.03;2.20;;;;;;;;;;5059672;28;20473;-85
2022/06/01 13:45:05;;;;;;;3.10;1.57;;;;;;;;;;5042434;28;20504;-86
2022/06/01 13:47:32;;;;;;;7.67;1.70;;;;;;;;;;5059116;28;20426;-85
2022/06/01 13:50:10;;;;;;;3.50;1.70;;;;;;;;;;5058582;28;20413;-84
2022/06/01 13:52:38;;;;;;;2.70;2.10;;;;;;;;;;5056303;28;20405;-84
2022/06/01 13:55:25;;;;;;;3.90;2.00;;;;;;;;;;5056071;28;20615;-85
2022/06/01 13:57:56;;;;;;;5.60;1.87;;;;;;;;;;5057902;28;20441;-84
2022/06/01 14:00:27;;;;;;;2.47;1.80;;;;;;;;;;5058895;28;20463;-84
2022/06/01 14:02:55;;;;;;;4.87;2.00;;;;;;;;;;5054220;28;20422;-83
2022/06/01 14:05:33;;;;;;;3.80;1.80;;;;;;;;;;5039856;28;20470;-82
2022/06/01 14:08:02;;;;;;;3.57;2.03;;;;;;;;;;5051270;28;20414;-85
2022/06/01 14:10:40;;;;;;;3.90;1.83;;;;;;;;;;5040886;28;20454;-84
2022/06/01 14:13:06;;;;;;;4.60;2.20;;;;;;;;;;5058357;28;20897;-85
2022/06/01 14:15:32;;;;;;;2.93;2.13;;;;;;;;;;5060166;28;20505;-86
2022/06/01 14:17:58;;;;;;;4.97;2.10;;;;;;;;;;5059128;28;20452;-86
2022/06/01 14:20:24;;;;;;;3.60;1.90;;;;;;;;;;5057807;28;20461;-87
2022/06/01 14:22:50;;;;;;;5.20;2.20;;;;;;;;;;5060411;28;20413;-88
2022/06/01 14:30:45;;;;;;;1.97;1.63;;;;;;;;;;5054832;28;20484;-88
2022/06/01 14:33:12;;;;;;;4.50;1.87;;;;;;;;;;5051643;28;20414;-87
2022/06/01 14:35:38;;;;;;;4.17;2.10;;;;;;;;;;5051832;28;20621;-86
2022/06/01 14:38:04;;;;;;;2.60;1.77;;;;;;;;;;5070587;28;20409;-88
2022/06/01 14:40:30;;;;;;;3.17;1.60;;;;;;;;;;5061358;28;20449;-87
2022/06/01 14:42:57;;;;;;;10.27;1.90;;;;;;;;;;5060299;28;20437;-87
2022/06/01 14:45:23;;;;;;;3.63;1.80;;;;;;;;;;5054881;28;20426;-89
2022/06/01 14:47:49;;;;;;;2.40;1.50;;;;;;;;;;5060215;28;20406;-87
2022/06/01 14:50:15;;;;;;;4.60;1.90;;;;;;;;;;5065350;28;20433;-88
2022/06/01 14:52:41;;;;;;;3.17;1.90;;;;;;;;;;5075205;28;20429;-87
2022/06/01 14:55:08;;;;;;;4.10;2.13;;;;;;;;;;5058113;28;20413;-86
2022/06/01 14:57:34;;;;;;;3.90;1.70;;;;;;;;;;5060401;28;20417;-89
2022/06/01 15:00:01;;;;;;;4.07;2.03;;;;;;;;;;5060493;28;20448;-87
2022/06/01 15:02:27;;;;;;;3.10;1.90;;;;;;;;;;5052835;28;20433;-87
2022/06/01 15:04:56;;;;;;;4.33;2.10;;;;;;;;;;5059599;28;20915;-86
2022/06/01 15:07:23;;;;;;;3.13;1.83;;;;;;;;;;5058958;28;20830;-87
2022/06/01 15:09:49;;;;;;;2.00;1.30;;;;;;;;;;5040744;28;20453;-85
2022/06/01 15:12:15;;;;;;;6.70;2.63;;;;;;;;;;5040152;28;20446;-87
2022/06/01 15:14:42;;;;;;;3.90;2.10;;;;;;;;;;5060588;28;20422;-88
2022/06/01 15:17:11;;;;;;;3.97;2.13;;;;;;;;;;5042456;28;20460;-87
2022/06/01 15:19:39;;;;;;;6.07;2.30;;;;;;;;;;5057929;28;20931;-88
2022/06/01 15:22:06;;;;;;;5.53;2.47;;;;;;;;;;5062660;28;20449;-88
2022/06/01 15:24:32;;;;;;;3.43;1.97;;;;;;;;;;5063434;28;20409;-87
2022/06/01 15:26:58;;;;;;;4.73;2.30;;;;;;;;;;5063723;28;20397;-88
2022/06/01 15:40:24;;;;;;;3.23;2.40;;;;;;;;;;5062744;28;20468;-88